sensor_id;sensor_type;location;lat;lon;timestamp;pressure;altitude;pressure_sealevel;temperature;humidity
38452;BME280;24231;52.514;13.438;2023-05-09T00:01:55;101973.59;;;9.34;50.92
38452;BME280;24231;52.514;13.438;2023-05-09T00:04:23;101976.74;;;9.59;50.33
38452;BME280;24231;52.514;13.438;2023-05-09T00:06:50;101977.20;;;8.85;52.54
38452;BME280;24231;52.514;13.438;2023-05-09T00:09:17;101977.11;;;9.36;50.85
38452;BME280;24231;52.514;13.438;2023-05-09T00:11:44;101977.64;;;9.32;51.21
38452;BME280;24231;52.514;13.438;2023-05-09T00:14:11;101975.95;;;8.81;52.60
38452;BME280;24231;52.514;13.438;2023-05-09T00:16:39;101977.55;;;9.25;51.25
38452;BME280;24231;52.514;13.438;2023-05-09T00:19:07;101972.09;;;9.72;50.24
38452;BME280;24231;52.514;13.438;2023-05-09T00:21:35;101976.12;;;9.43;51.11
38452;BME280;24231;52.514;13.438;2023-05-09T00:24:02;101980.06;;;9.24;51.76
38452;BME280;24231;52.514;13.438;2023-05-09T00:26:29;101974.37;;;9.01;52.60
38452;BME280;24231;52.514;13.438;2023-05-09T00:28:56;101977.23;;;9.13;52.09
38452;BME280;24231;52.514;13.438;2023-05-09T00:31:24;101976.76;;;9.29;52.28
38452;BME280;24231;52.514;13.438;2023-05-09T00:33:52;101977.86;;;9.22;51.73
38452;BME280;24231;52.514;13.438;2023-05-09T00:36:20;101974.54;;;9.47;51.35
38452;BME280;24231;52.514;13.438;2023-05-09T00:38:47;101981.35;;;9.23;51.73
38452;BME280;24231;52.514;13.438;2023-05-09T00:41:14;101974.24;;;9.38;51.55
38452;BME280;24231;52.514;13.438;2023-05-09T00:43:42;101975.51;;;8.71;53.63
38452;BME280;24231;52.514;13.438;2023-05-09T00:46:09;101978.37;;;8.78;52.44
38452;BME280;24231;52.514;13.438;2023-05-09T00:48:36;101978.63;;;9.25;51.06
38452;BME280;24231;52.514;13.438;2023-05-09T00:51:04;101973.62;;;9.73;49.70
38452;BME280;24231;52.514;13.438;2023-05-09T00:53:31;101974.46;;;9.26;50.79
38452;BME280;24231;52.514;13.438;2023-05-09T00:55:59;101966.93;;;9.41;50.72
38452;BME280;24231;52.514;13.438;2023-05-09T00:58:26;101962.03;;;9.55;50.00
38452;BME280;24231;52.514;13.438;2023-05-09T01:00:53;101964.67;;;8.95;51.52
38452;BME280;24231;52.514;13.438;2023-05-09T01:03:21;101958.90;;;9.05;52.34
38452;BME280;24231;52.514;13.438;2023-05-09T01:05:54;101955.81;;;8.90;51.85
38452;BME280;24231;52.514;13.438;2023-05-09T01:08:32;101959.60;;;9.42;50.62
38452;BME280;24231;52.514;13.438;2023-05-09T01:11:10;101951.41;;;9.00;51.36
38452;BME280;24231;52.514;13.438;2023-05-09T01:13:47;101948.86;;;9.19;50.87
38452;BME280;24231;52.514;13.438;2023-05-09T01:16:21;101950.55;;;9.11;50.86
38452;BME280;24231;52.514;13.438;2023-05-09T01:18:54;101944.29;;;9.57;50.09
38452;BME280;24231;52.514;13.438;2023-05-09T01:21:28;101941.09;;;9.33;49.97
38452;BME280;24231;52.514;13.438;2023-05-09T01:24:12;101949.27;;;9.07;50.38
38452;BME280;24231;52.514;13.438;2023-05-09T01:26:57;101941.30;;;9.11;50.21
38452;BME280;24231;52.514;13.438;2023-05-09T01:29:34;101946.49;;;8.94;50.48
38452;BME280;24231;52.514;13.438;2023-05-09T01:32:06;101943.94;;;9.29;49.90
38452;BME280;24231;52.514;13.438;2023-05-09T01:34:34;101942.33;;;8.91;50.16
38452;BME280;24231;52.514;13.438;2023-05-09T01:37:05;101931.91;;;9.01;49.69
38452;BME280;24231;52.514;13.438;2023-05-09T01:39:33;101935.24;;;9.10;49.93
38452;BME280;24231;52.514;13.438;2023-05-09T01:42:07;101932.10;;;8.94;50.12
38452;BME280;24231;52.514;13.438;2023-05-09T01:44:38;101930.96;;;8.82;49.48
38452;BME280;24231;52.514;13.438;2023-05-09T01:47:06;101929.73;;;9.04;49.49
38452;BME280;24231;52.514;13.438;2023-05-09T01:49:36;101930.87;;;8.83;49.26
38452;BME280;24231;52.514;13.438;2023-05-09T01:52:07;101931.02;;;8.82;49.28
38452;BME280;24231;52.514;13.438;2023-05-09T01:54:36;101933.77;;;8.87;48.49
38452;BME280;24231;52.514;13.438;2023-05-09T01:57:07;101929.07;;;8.73;48.96
38452;BME280;24231;52.514;13.438;2023-05-09T01:59:35;101926.37;;;9.15;48.05
38452;BME280;24231;52.514;13.438;2023-05-09T02:02:05;101925.19;;;8.88;48.14
38452;BME280;24231;52.514;13.438;2023-05-09T02:04:34;101925.51;;;9.16;47.69
38452;BME280;24231;52.514;13.438;2023-05-09T02:07:02;101936.23;;;8.79;48.07
38452;BME280;24231;52.514;13.438;2023-05-09T02:09:29;101931.23;;;8.87;47.94
38452;BME280;24231;52.514;13.438;2023-05-09T02:11:57;101935.42;;;8.83;47.34
38452;BME280;24231;52.514;13.438;2023-05-09T02:14:24;101928.86;;;8.95;47.49
38452;BME280;24231;52.514;13.438;2023-05-09T02:16:52;101926.45;;;8.71;47.68
38452;BME280;24231;52.514;13.438;2023-05-09T02:19:20;101928.44;;;8.73;47.77
38452;BME280;24231;52.514;13.438;2023-05-09T02:21:47;101927.51;;;8.69;47.76
38452;BME280;24231;52.514;13.438;2023-05-09T02:24:14;101926.01;;;8.67;47.70
38452;BME280;24231;52.514;13.438;2023-05-09T02:26:42;101930.10;;;8.98;47.06
38452;BME280;24231;52.514;13.438;2023-05-09T02:29:09;101928.12;;;8.79;46.73
38452;BME280;24231;52.514;13.438;2023-05-09T02:31:39;101931.09;;;8.75;46.59
38452;BME280;24231;52.514;13.438;2023-05-09T02:34:07;101931.78;;;8.92;46.21
38452;BME280;24231;52.514;13.438;2023-05-09T02:36:36;101932.77;;;8.82;46.14
38452;BME280;24231;52.514;13.438;2023-05-09T02:39:03;101934.28;;;8.78;46.36
38452;BME280;24231;52.514;13.438;2023-05-09T02:41:30;101928.60;;;9.07;45.93
38452;BME280;24231;52.514;13.438;2023-05-09T02:43:58;101933.67;;;8.94;46.39
38452;BME280;24231;52.514;13.438;2023-05-09T02:46:25;101940.85;;;8.73;46.92
38452;BME280;24231;52.514;13.438;2023-05-09T02:48:52;101935.92;;;8.51;47.26
38452;BME280;24231;52.514;13.438;2023-05-09T02:51:20;101930.68;;;8.88;46.38
38452;BME280;24231;52.514;13.438;2023-05-09T02:53:47;101930.53;;;8.75;46.88
38452;BME280;24231;52.514;13.438;2023-05-09T02:56:14;101929.14;;;8.67;46.67
38452;BME280;24231;52.514;13.438;2023-05-09T02:58:42;101927.18;;;8.56;47.28
38452;BME280;24231;52.514;13.438;2023-05-09T03:01:09;101924.51;;;8.74;46.85
38452;BME280;24231;52.514;13.438;2023-05-09T03:03:36;101924.20;;;8.59;47.24
38452;BME280;24231;52.514;13.438;2023-05-09T03:06:04;101923.69;;;8.52;47.64
38452;BME280;24231;52.514;13.438;2023-05-09T03:08:31;101921.86;;;8.96;46.28
38452;BME280;24231;52.514;13.438;2023-05-09T03:10:58;101923.79;;;8.77;46.95
38452;BME280;24231;52.514;13.438;2023-05-09T03:13:25;101924.94;;;8.77;46.94
38452;BME280;24231;52.514;13.438;2023-05-09T03:15:53;101920.33;;;8.49;47.87
38452;BME280;24231;52.514;13.438;2023-05-09T03:18:20;101912.20;;;8.33;48.05
38452;BME280;24231;52.514;13.438;2023-05-09T03:20:47;101914.28;;;8.53;47.73
38452;BME280;24231;52.514;13.438;2023-05-09T03:23:15;101911.76;;;8.61;47.81
38452;BME280;24231;52.514;13.438;2023-05-09T03:25:42;101913.25;;;8.59;47.71
38452;BME280;24231;52.514;13.438;2023-05-09T03:28:09;101911.84;;;8.54;47.60
38452;BME280;24231;52.514;13.438;2023-05-09T03:30:36;101913.51;;;8.71;47.63
38452;BME280;24231;52.514;13.438;2023-05-09T03:33:04;101908.29;;;8.75;47.40
38452;BME280;24231;52.514;13.438;2023-05-09T03:35:31;101918.12;;;8.44;48.10
38452;BME280;24231;52.514;13.438;2023-05-09T03:37:59;101913.94;;;8.14;49.35
38452;BME280;24231;52.514;13.438;2023-05-09T03:40:26;101910.40;;;8.64;48.20
38452;BME280;24231;52.514;13.438;2023-05-09T03:42:53;101915.36;;;8.41;48.89
38452;BME280;24231;52.514;13.438;2023-05-09T03:45:21;101917.14;;;8.59;48.38
38452;BME280;24231;52.514;13.438;2023-05-09T03:47:48;101916.39;;;8.62;47.96
38452;BME280;24231;52.514;13.438;2023-05-09T03:50:15;101918.11;;;8.25;48.94
38452;BME280;24231;52.514;13.438;2023-05-09T03:52:43;101918.24;;;8.47;48.35
38452;BME280;24231;52.514;13.438;2023-05-09T03:55:10;101916.65;;;8.46;48.52
38452;BME280;24231;52.514;13.438;2023-05-09T03:57:37;101911.98;;;8.52;47.89
38452;BME280;24231;52.514;13.438;2023-05-09T04:00:06;101909.23;;;8.53;47.71
38452;BME280;24231;52.514;13.438;2023-05-09T04:02:33;101905.15;;;8.49;48.28
38452;BME280;24231;52.514;13.438;2023-05-09T04:05:01;101905.42;;;8.85;47.43
38452;BME280;24231;52.514;13.438;2023-05-09T04:07:28;101915.52;;;8.88;47.54
38452;BME280;24231;52.514;13.438;2023-05-09T04:09:55;101906.52;;;9.40;46.54
38452;BME280;24231;52.514;13.438;2023-05-09T04:12:22;101898.74;;;9.75;45.06
38452;BME280;24231;52.514;13.438;2023-05-09T04:14:49;101899.71;;;9.92;44.19
38452;BME280;24231;52.514;13.438;2023-05-09T04:17:16;101898.91;;;10.48;43.32
38452;BME280;24231;52.514;13.438;2023-05-09T04:19:44;101918.55;;;9.52;45.60
38452;BME280;24231;52.514;13.438;2023-05-09T04:22:11;101897.62;;;10.04;44.74
38452;BME280;24231;52.514;13.438;2023-05-09T04:24:38;101899.06;;;10.69;43.11
38452;BME280;24231;52.514;13.438;2023-05-09T04:27:05;101901.43;;;10.44;43.39
38452;BME280;24231;52.514;13.438;2023-05-09T04:29:32;101904.31;;;10.44;43.44
38452;BME280;24231;52.514;13.438;2023-05-09T04:32:00;101907.80;;;10.46;43.20
38452;BME280;24231;52.514;13.438;2023-05-09T04:34:27;101908.29;;;10.40;43.43
38452;BME280;24231;52.514;13.438;2023-05-09T04:36:54;101901.78;;;10.62;43.16
38452;BME280;24231;52.514;13.438;2023-05-09T04:39:21;101897.59;;;10.99;42.01
38452;BME280;24231;52.514;13.438;2023-05-09T04:41:48;101901.20;;;10.77;42.55
38452;BME280;24231;52.514;13.438;2023-05-09T04:44:16;101900.11;;;10.82;42.54
38452;BME280;24231;52.514;13.438;2023-05-09T04:46:43;101903.41;;;11.27;41.69
38452;BME280;24231;52.514;13.438;2023-05-09T04:49:10;101913.65;;;10.94;42.41
38452;BME280;24231;52.514;13.438;2023-05-09T04:51:37;101910.35;;;11.09;42.09
38452;BME280;24231;52.514;13.438;2023-05-09T04:54:04;101900.98;;;11.37;41.71
38452;BME280;24231;52.514;13.438;2023-05-09T04:56:31;101894.41;;;11.81;40.29
38452;BME280;24231;52.514;13.438;2023-05-09T04:58:58;101895.39;;;12.17;39.72
38452;BME280;24231;52.514;13.438;2023-05-09T05:01:25;101890.27;;;12.29;39.27
38452;BME280;24231;52.514;13.438;2023-05-09T05:03:52;101889.80;;;13.15;37.90
38452;BME280;24231;52.514;13.438;2023-05-09T05:06:19;101889.24;;;12.47;38.95
38452;BME280;24231;52.514;13.438;2023-05-09T05:08:46;101885.07;;;12.57;38.92
38452;BME280;24231;52.514;13.438;2023-05-09T05:11:13;101890.23;;;12.20;39.45
38452;BME280;24231;52.514;13.438;2023-05-09T05:13:40;101886.32;;;12.75;38.58
38452;BME280;24231;52.514;13.438;2023-05-09T05:16:07;101889.42;;;12.51;38.79
38452;BME280;24231;52.514;13.438;2023-05-09T05:18:34;101890.35;;;12.96;38.05
38452;BME280;24231;52.514;13.438;2023-05-09T05:21:01;101885.78;;;12.92;37.78
38452;BME280;24231;52.514;13.438;2023-05-09T05:23:28;101883.68;;;13.26;37.52
38452;BME280;24231;52.514;13.438;2023-05-09T05:25:55;101877.71;;;12.84;37.73
38452;BME280;24231;52.514;13.438;2023-05-09T05:28:22;101875.72;;;13.45;36.62
38452;BME280;24231;52.514;13.438;2023-05-09T05:30:49;101877.47;;;13.35;36.85
38452;BME280;24231;52.514;13.438;2023-05-09T05:33:16;101873.01;;;13.82;36.15
38452;BME280;24231;52.514;13.438;2023-05-09T05:35:43;101870.70;;;13.44;36.74
38452;BME280;24231;52.514;13.438;2023-05-09T05:38:10;101870.26;;;13.46;36.94
38452;BME280;24231;52.514;13.438;2023-05-09T05:40:38;101870.34;;;13.97;35.93
38452;BME280;24231;52.514;13.438;2023-05-09T05:43:05;101874.68;;;12.93;37.78
38452;BME280;24231;52.514;13.438;2023-05-09T05:45:32;101873.19;;;14.49;35.03
38452;BME280;24231;52.514;13.438;2023-05-09T05:47:58;101876.98;;;13.24;37.06
38452;BME280;24231;52.514;13.438;2023-05-09T05:50:26;101870.77;;;13.03;37.66
38452;BME280;24231;52.514;13.438;2023-05-09T05:52:53;101861.41;;;13.63;36.89
38452;BME280;24231;52.514;13.438;2023-05-09T05:55:20;101874.40;;;13.90;35.82
38452;BME280;24231;52.514;13.438;2023-05-09T05:57:46;101865.72;;;12.83;37.88
38452;BME280;24231;52.514;13.438;2023-05-09T06:00:14;101847.02;;;13.71;36.28
38452;BME280;24231;52.514;13.438;2023-05-09T06:02:42;101848.71;;;14.23;35.54
38452;BME280;24231;52.514;13.438;2023-05-09T06:05:10;101838.64;;;14.44;34.95
38452;BME280;24231;52.514;13.438;2023-05-09T06:07:37;101850.46;;;13.71;35.66
38452;BME280;24231;52.514;13.438;2023-05-09T06:10:06;101836.52;;;13.23;36.99
38452;BME280;24231;52.514;13.438;2023-05-09T06:12:33;101838.79;;;13.91;35.26
38452;BME280;24231;52.514;13.438;2023-05-09T06:15:00;101841.80;;;14.28;34.76
38452;BME280;24231;52.514;13.438;2023-05-09T06:17:28;101825.66;;;14.36;34.13
38452;BME280;24231;52.514;13.438;2023-05-09T06:19:55;101826.82;;;14.45;34.29
38452;BME280;24231;52.514;13.438;2023-05-09T06:22:22;101827.49;;;14.88;33.83
38452;BME280;24231;52.514;13.438;2023-05-09T06:24:49;101826.69;;;14.51;33.92
38452;BME280;24231;52.514;13.438;2023-05-09T06:27:17;101818.53;;;15.07;33.53
38452;BME280;24231;52.514;13.438;2023-05-09T06:29:44;101819.73;;;14.96;33.30
38452;BME280;24231;52.514;13.438;2023-05-09T06:32:11;101810.44;;;14.84;33.40
38452;BME280;24231;52.514;13.438;2023-05-09T06:34:38;101803.77;;;15.25;32.66
38452;BME280;24231;52.514;13.438;2023-05-09T06:37:05;101803.52;;;15.21;32.92
38452;BME280;24231;52.514;13.438;2023-05-09T06:39:32;101806.84;;;15.69;32.29
38452;BME280;24231;52.514;13.438;2023-05-09T06:42:00;101795.42;;;15.27;32.72
38452;BME280;24231;52.514;13.438;2023-05-09T06:44:57;101798.31;;;15.30;32.95
38452;BME280;24231;52.514;13.438;2023-05-09T06:47:24;101793.78;;;14.78;34.55
38452;BME280;24231;52.514;13.438;2023-05-09T06:49:51;101784.17;;;15.59;32.77
38452;BME280;24231;52.514;13.438;2023-05-09T06:52:18;101781.88;;;15.78;32.68
38452;BME280;24231;52.514;13.438;2023-05-09T06:54:45;101779.82;;;16.48;31.74
38452;BME280;24231;52.514;13.438;2023-05-09T06:57:12;101783.30;;;16.42;31.81
38452;BME280;24231;52.514;13.438;2023-05-09T06:59:39;101784.59;;;15.57;33.36
38452;BME280;24231;52.514;13.438;2023-05-09T07:02:06;101783.46;;;15.77;33.31
38452;BME280;24231;52.514;13.438;2023-05-09T07:04:33;101778.87;;;15.94;33.03
38452;BME280;24231;52.514;13.438;2023-05-09T07:07:00;101786.26;;;16.11;32.49
38452;BME280;24231;52.514;13.438;2023-05-09T07:09:27;101782.35;;;15.01;33.61
38452;BME280;24231;52.514;13.438;2023-05-09T07:11:54;101769.20;;;15.19;33.99
38452;BME280;24231;52.514;13.438;2023-05-09T07:14:21;101782.78;;;15.00;34.53
38452;BME280;24231;52.514;13.438;2023-05-09T07:16:49;101750.90;;;14.88;34.83
38452;BME280;24231;52.514;13.438;2023-05-09T07:19:16;101746.86;;;15.73;32.72
38452;BME280;24231;52.514;13.438;2023-05-09T07:21:43;101738.81;;;16.03;31.84
38452;BME280;24231;52.514;13.438;2023-05-09T07:24:10;101738.20;;;15.82;31.41
38452;BME280;24231;52.514;13.438;2023-05-09T07:26:37;101733.41;;;16.36;31.08
38452;BME280;24231;52.514;13.438;2023-05-09T07:29:04;101733.75;;;16.11;31.42
38452;BME280;24231;52.514;13.438;2023-05-09T07:31:31;101723.91;;;15.51;32.10
38452;BME280;24231;52.514;13.438;2023-05-09T07:33:59;101745.02;;;15.45;32.45
38452;BME280;24231;52.514;13.438;2023-05-09T07:36:26;101738.87;;;16.13;31.33
38452;BME280;24231;52.514;13.438;2023-05-09T07:38:53;101726.65;;;14.83;32.42
38452;BME280;24231;52.514;13.438;2023-05-09T07:41:20;101739.23;;;15.49;31.90
38452;BME280;24231;52.514;13.438;2023-05-09T07:43:46;101738.48;;;15.29;31.67
38452;BME280;24231;52.514;13.438;2023-05-09T07:46:13;101712.42;;;15.47;31.74
38452;BME280;24231;52.514;13.438;2023-05-09T07:48:40;101706.59;;;15.91;30.94
38452;BME280;24231;52.514;13.438;2023-05-09T07:51:07;101697.71;;;16.02;31.05
38452;BME280;24231;52.514;13.438;2023-05-09T07:53:34;101699.59;;;16.39;30.58
38452;BME280;24231;52.514;13.438;2023-05-09T07:56:01;101699.69;;;15.34;31.89
38452;BME280;24231;52.514;13.438;2023-05-09T07:58:28;101682.04;;;16.53;30.33
38452;BME280;24231;52.514;13.438;2023-05-09T08:00:56;101704.07;;;16.44;29.95
38452;BME280;24231;52.514;13.438;2023-05-09T08:03:23;101673.40;;;16.33;30.20
38452;BME280;24231;52.514;13.438;2023-05-09T08:05:53;101675.76;;;16.90;28.95
38452;BME280;24231;52.514;13.438;2023-05-09T08:08:21;101674.41;;;16.77;28.87
38452;BME280;24231;52.514;13.438;2023-05-09T08:10:48;101670.34;;;16.66;28.81
38452;BME280;24231;52.514;13.438;2023-05-09T08:13:15;101667.55;;;16.57;28.14
38452;BME280;24231;52.514;13.438;2023-05-09T08:15:43;101681.26;;;16.41;28.65
38452;BME280;24231;52.514;13.438;2023-05-09T08:18:10;101664.90;;;16.63;28.80
38452;BME280;24231;52.514;13.438;2023-05-09T08:20:36;101661.77;;;16.62;28.88
38452;BME280;24231;52.514;13.438;2023-05-09T08:23:04;101669.78;;;16.94;28.16
38452;BME280;24231;52.514;13.438;2023-05-09T08:25:31;101657.45;;;17.25;27.98
38452;BME280;24231;52.514;13.438;2023-05-09T08:27:58;101665.37;;;17.28;27.73
38452;BME280;24231;52.514;13.438;2023-05-09T08:30:26;101662.51;;;16.99;28.15
38452;BME280;24231;52.514;13.438;2023-05-09T08:32:52;101660.98;;;17.52;27.63
38452;BME280;24231;52.514;13.438;2023-05-09T08:35:19;101662.25;;;16.11;29.25
38452;BME280;24231;52.514;13.438;2023-05-09T08:37:46;101658.71;;;16.99;28.67
38452;BME280;24231;52.514;13.438;2023-05-09T08:40:14;101642.59;;;16.57;28.91
38452;BME280;24231;52.514;13.438;2023-05-09T08:42:43;101660.37;;;15.89;30.01
38452;BME280;24231;52.514;13.438;2023-05-09T08:45:11;101660.74;;;15.89;29.76
38452;BME280;24231;52.514;13.438;2023-05-09T08:47:39;101658.44;;;16.41;28.92
38452;BME280;24231;52.514;13.438;2023-05-09T08:50:08;101661.14;;;16.91;28.53
38452;BME280;24231;52.514;13.438;2023-05-09T08:52:35;101654.84;;;16.63;28.93
38452;BME280;24231;52.514;13.438;2023-05-09T08:55:03;101658.22;;;16.81;28.51
38452;BME280;24231;52.514;13.438;2023-05-09T08:57:31;101654.60;;;16.66;29.15
38452;BME280;24231;52.514;13.438;2023-05-09T08:59:58;101655.45;;;16.16;29.71
38452;BME280;24231;52.514;13.438;2023-05-09T09:02:25;101650.71;;;16.49;29.40
38452;BME280;24231;52.514;13.438;2023-05-09T09:04:53;101638.64;;;16.68;28.94
38452;BME280;24231;52.514;13.438;2023-05-09T09:07:20;101643.80;;;17.27;28.46
38452;BME280;24231;52.514;13.438;2023-05-09T09:09:48;101635.27;;;17.18;28.52
38452;BME280;24231;52.514;13.438;2023-05-09T09:12:16;101658.37;;;16.76;28.83
38452;BME280;24231;52.514;13.438;2023-05-09T09:14:47;101627.57;;;16.18;29.30
38452;BME280;24231;52.514;13.438;2023-05-09T09:17:19;101628.83;;;17.09;28.23
38452;BME280;24231;52.514;13.438;2023-05-09T09:19:48;101655.08;;;17.19;28.24
38452;BME280;24231;52.514;13.438;2023-05-09T09:22:18;101624.36;;;17.60;27.97
38452;BME280;24231;52.514;13.438;2023-05-09T09:24:45;101621.69;;;16.97;29.34
38452;BME280;24231;52.514;13.438;2023-05-09T09:27:13;101627.77;;;16.76;28.65
38452;BME280;24231;52.514;13.438;2023-05-09T09:30:24;101619.58;;;16.91;28.52
38452;BME280;24231;52.514;13.438;2023-05-09T09:32:51;101614.74;;;16.96;28.68
38452;BME280;24231;52.514;13.438;2023-05-09T09:35:18;101613.24;;;16.97;28.41
38452;BME280;24231;52.514;13.438;2023-05-09T09:37:45;101609.18;;;16.60;28.41
38452;BME280;24231;52.514;13.438;2023-05-09T09:40:12;101631.69;;;16.97;28.12
38452;BME280;24231;52.514;13.438;2023-05-09T09:42:40;101603.12;;;16.90;27.13
38452;BME280;24231;52.514;13.438;2023-05-09T09:45:09;101602.19;;;16.90;26.80
38452;BME280;24231;52.514;13.438;2023-05-09T09:47:36;101599.20;;;17.06;26.82
38452;BME280;24231;52.514;13.438;2023-05-09T09:50:10;101600.04;;;16.91;26.76
38452;BME280;24231;52.514;13.438;2023-05-09T09:52:43;101592.57;;;17.19;26.83
38452;BME280;24231;52.514;13.438;2023-05-09T09:55:10;101579.01;;;17.55;27.05
38452;BME280;24231;52.514;13.438;2023-05-09T09:57:38;101582.25;;;16.70;28.63
38452;BME280;24231;52.514;13.438;2023-05-09T10:00:06;101575.85;;;16.75;27.70
38452;BME280;24231;52.514;13.438;2023-05-09T10:02:33;101581.02;;;16.94;27.30
38452;BME280;24231;52.514;13.438;2023-05-09T10:05:06;101573.74;;;17.09;27.22
38452;BME280;24231;52.514;13.438;2023-05-09T10:07:33;101567.49;;;17.18;27.09
38452;BME280;24231;52.514;13.438;2023-05-09T10:10:01;101563.79;;;17.32;27.46
38452;BME280;24231;52.514;13.438;2023-05-09T10:12:28;101593.48;;;16.68;28.66
38452;BME280;24231;52.514;13.438;2023-05-09T10:14:55;101569.38;;;16.90;27.50
38452;BME280;24231;52.514;13.438;2023-05-09T10:17:23;101552.97;;;17.06;27.40
38452;BME280;24231;52.514;13.438;2023-05-09T10:19:51;101557.46;;;16.39;28.98
38452;BME280;24231;52.514;13.438;2023-05-09T10:22:20;101551.46;;;16.35;29.15
38452;BME280;24231;52.514;13.438;2023-05-09T10:24:50;101553.71;;;16.47;29.13
38452;BME280;24231;52.514;13.438;2023-05-09T10:27:26;101543.32;;;16.69;27.42
38452;BME280;24231;52.514;13.438;2023-05-09T10:30:00;101553.08;;;16.22;28.34
38452;BME280;24231;52.514;13.438;2023-05-09T10:32:31;101546.63;;;15.97;28.59
38452;BME280;24231;52.514;13.438;2023-05-09T10:35:05;101535.13;;;16.47;28.02
38452;BME280;24231;52.514;13.438;2023-05-09T10:37:33;101529.59;;;15.90;28.35
38452;BME280;24231;52.514;13.438;2023-05-09T10:40:03;101531.96;;;16.52;26.97
38452;BME280;24231;52.514;13.438;2023-05-09T10:42:30;101541.28;;;16.83;27.22
38452;BME280;24231;52.514;13.438;2023-05-09T10:44:57;101527.27;;;16.23;27.91
38452;BME280;24231;52.514;13.438;2023-05-09T10:47:25;101536.31;;;16.48;27.40
38452;BME280;24231;52.514;13.438;2023-05-09T10:49:53;101535.30;;;16.45;27.18
38452;BME280;24231;52.514;13.438;2023-05-09T10:52:21;101529.09;;;16.36;27.27
38452;BME280;24231;52.514;13.438;2023-05-09T10:54:58;101528.00;;;16.68;27.51
38452;BME280;24231;52.514;13.438;2023-05-09T10:57:27;101518.52;;;16.64;27.61
38452;BME280;24231;52.514;13.438;2023-05-09T10:59:55;101507.11;;;16.36;27.61
38452;BME280;24231;52.514;13.438;2023-05-09T11:02:23;101516.49;;;16.42;27.52
38452;BME280;24231;52.514;13.438;2023-05-09T11:05:12;101510.56;;;16.42;27.76
38452;BME280;24231;52.514;13.438;2023-05-09T11:07:40;101499.53;;;16.60;27.72
38452;BME280;24231;52.514;13.438;2023-05-09T11:10:08;101501.52;;;16.70;27.69
38452;BME280;24231;52.514;13.438;2023-05-09T11:12:52;101507.38;;;16.56;27.11
38452;BME280;24231;52.514;13.438;2023-05-09T11:15:19;101498.03;;;16.33;27.75
38452;BME280;24231;52.514;13.438;2023-05-09T11:17:50;101484.61;;;16.40;27.87
38452;BME280;24231;52.514;13.438;2023-05-09T11:20:32;101479.78;;;16.49;28.42
38452;BME280;24231;52.514;13.438;2023-05-09T11:23:00;101470.02;;;16.36;29.00
38452;BME280;24231;52.514;13.438;2023-05-09T11:25:29;101459.99;;;16.62;28.53
38452;BME280;24231;52.514;13.438;2023-05-09T11:27:59;101463.98;;;16.70;28.53
38452;BME280;24231;52.514;13.438;2023-05-09T11:30:38;101460.57;;;16.96;27.93
38452;BME280;24231;52.514;13.438;2023-05-09T11:33:05;101454.96;;;16.80;27.94
38452;BME280;24231;52.514;13.438;2023-05-09T11:35:36;101456.79;;;16.00;28.67
38452;BME280;24231;52.514;13.438;2023-05-09T11:38:05;101458.96;;;16.41;28.75
38452;BME280;24231;52.514;13.438;2023-05-09T11:40:33;101455.84;;;16.64;28.41
38452;BME280;24231;52.514;13.438;2023-05-09T11:43:02;101443.48;;;16.52;28.42
38452;BME280;24231;52.514;13.438;2023-05-09T11:45:31;101435.22;;;16.44;28.34
38452;BME280;24231;52.514;13.438;2023-05-09T11:47:59;101430.09;;;16.16;28.68
38452;BME280;24231;52.514;13.438;2023-05-09T11:50:26;101424.55;;;16.50;28.28
38452;BME280;24231;52.514;13.438;2023-05-09T11:52:53;101424.43;;;16.70;28.13
38452;BME280;24231;52.514;13.438;2023-05-09T11:55:21;101414.63;;;16.60;28.02
38452;BME280;24231;52.514;13.438;2023-05-09T11:57:50;101425.78;;;16.26;28.51
38452;BME280;24231;52.514;13.438;2023-05-09T12:00:19;101415.19;;;16.45;28.59
38452;BME280;24231;52.514;13.438;2023-05-09T12:02:48;101429.59;;;15.85;29.13
38452;BME280;24231;52.514;13.438;2023-05-09T12:05:17;101406.45;;;16.35;29.30
38452;BME280;24231;52.514;13.438;2023-05-09T12:07:45;101397.83;;;16.19;29.11
38452;BME280;24231;52.514;13.438;2023-05-09T12:10:14;101383.33;;;16.51;28.85
38452;BME280;24231;52.514;13.438;2023-05-09T12:12:43;101396.10;;;16.31;28.79
38452;BME280;24231;52.514;13.438;2023-05-09T12:15:11;101398.76;;;15.95;29.21
38452;BME280;24231;52.514;13.438;2023-05-09T12:17:39;101422.64;;;16.04;28.89
38452;BME280;24231;52.514;13.438;2023-05-09T12:20:08;101381.08;;;15.82;29.28
38452;BME280;24231;52.514;13.438;2023-05-09T12:22:36;101372.34;;;16.28;28.51
38452;BME280;24231;52.514;13.438;2023-05-09T12:25:06;101390.22;;;16.25;28.67
38452;BME280;24231;52.514;13.438;2023-05-09T12:27:34;101365.70;;;16.15;28.48
38452;BME280;24231;52.514;13.438;2023-05-09T12:30:02;101361.66;;;16.20;28.97
38452;BME280;24231;52.514;13.438;2023-05-09T12:32:30;101361.31;;;16.15;29.32
38452;BME280;24231;52.514;13.438;2023-05-09T12:34:58;101368.59;;;16.44;29.35
38452;BME280;24231;52.514;13.438;2023-05-09T12:37:25;101353.82;;;15.93;28.99
38452;BME280;24231;52.514;13.438;2023-05-09T12:40:01;101337.72;;;16.36;29.05
38452;BME280;24231;52.514;13.438;2023-05-09T12:42:29;101333.56;;;16.52;29.07
38452;BME280;24231;52.514;13.438;2023-05-09T12:44:57;101339.20;;;16.06;29.43
38452;BME280;24231;52.514;13.438;2023-05-09T12:47:26;101329.18;;;16.30;28.96
38452;BME280;24231;52.514;13.438;2023-05-09T12:49:57;101351.98;;;16.56;29.12